sensor_id;sensor_type;location;lat;lon;timestamp;P1;durP1;ratioP1;P2;durP2;ratioP2
70675;SDS011;59069;52.242;20.900;2023-07-29T00:01:43;15.70;;;7.50;;
70675;SDS011;59069;52.242;20.900;2023-07-29T00:04:09;15.70;;;7.37;;
70675;SDS011;59069;52.242;20.900;2023-07-29T00:06:34;12.38;;;7.18;;
70675;SDS011;59069;52.242;20.900;2023-07-29T00:09:00;15.00;;;7.78;;
70675;SDS011;59069;52.242;20.900;2023-07-29T00:11:26;14.20;;;7.10;;
70675;SDS011;59069;52.242;20.900;2023-07-29T00:13:51;15.60;;;6.93;;
70675;SDS011;59069;52.242;20.900;2023-07-29T00:16:18;13.05;;;7.50;;
70675;SDS011;59069;52.242;20.900;2023-07-29T00:18:46;16.88;;;7.65;;
70675;SDS011;59069;52.242;20.900;2023-07-29T00:21:12;13.57;;;6.93;;
70675;SDS011;59069;52.242;20.900;2023-07-29T00:23:37;15.55;;;8.13;;
70675;SDS011;59069;52.242;20.900;2023-07-29T00:26:03;15.50;;;8.03;;
70675;SDS011;59069;52.242;20.900;2023-07-29T00:28:28;16.13;;;8.27;;
70675;SDS011;59069;52.242;20.900;2023-07-29T00:30:53;14.87;;;8.70;;
70675;SDS011;59069;52.242;20.900;2023-07-29T00:33:19;20.13;;;8.27;;
70675;SDS011;59069;52.242;20.900;2023-07-29T00:35:45;23.77;;;10.23;;
70675;SDS011;59069;52.242;20.900;2023-07-29T00:38:11;23.00;;;10.03;;
70675;SDS011;59069;52.242;20.900;2023-07-29T00:40:36;21.70;;;9.80;;
70675;SDS011;59069;52.242;20.900;2023-07-29T00:43:02;16.23;;;8.97;;
70675;SDS011;59069;52.242;20.900;2023-07-29T00:45:29;16.23;;;8.93;;
70675;SDS011;59069;52.242;20.900;2023-07-29T00:47:55;21.05;;;9.70;;
70675;SDS011;59069;52.242;20.900;2023-07-29T00:50:21;17.55;;;9.43;;
70675;SDS011;59069;52.242;20.900;2023-07-29T00:52:48;22.67;;;10.17;;
70675;SDS011;59069;52.242;20.900;2023-07-29T00:55:14;23.05;;;10.63;;
70675;SDS011;59069;52.242;20.900;2023-07-29T00:57:39;22.53;;;9.70;;
70675;SDS011;59069;52.242;20.900;2023-07-29T01:00:07;19.92;;;9.35;;
70675;SDS011;59069;52.242;20.900;2023-07-29T01:02:33;22.08;;;8.45;;
70675;SDS011;59069;52.242;20.900;2023-07-29T01:05:00;14.13;;;8.55;;
70675;SDS011;59069;52.242;20.900;2023-07-29T01:12:42;20.27;;;10.13;;
70675;SDS011;59069;52.242;20.900;2023-07-29T01:15:19;24.20;;;11.35;;
70675;SDS011;59069;52.242;20.900;2023-07-29T01:18:15;25.55;;;9.90;;
70675;SDS011;59069;52.242;20.900;2023-07-29T01:20:45;22.02;;;10.63;;
70675;SDS011;59069;52.242;20.900;2023-07-29T01:23:12;23.50;;;10.03;;
70675;SDS011;59069;52.242;20.900;2023-07-29T01:25:38;26.55;;;11.77;;
70675;SDS011;59069;52.242;20.900;2023-07-29T01:28:03;28.80;;;11.27;;
70675;SDS011;59069;52.242;20.900;2023-07-29T01:30:30;23.90;;;10.67;;
70675;SDS011;59069;52.242;20.900;2023-07-29T01:33:04;27.67;;;10.10;;
70675;SDS011;59069;52.242;20.900;2023-07-29T01:35:51;35.25;;;10.45;;
70675;SDS011;59069;52.242;20.900;2023-07-29T01:38:28;35.83;;;10.07;;
70675;SDS011;59069;52.242;20.900;2023-07-29T01:40:56;28.47;;;11.37;;
70675;SDS011;59069;52.242;20.900;2023-07-29T01:43:24;24.58;;;11.40;;
70675;SDS011;59069;52.242;20.900;2023-07-29T01:45:50;23.45;;;11.27;;
70675;SDS011;59069;52.242;20.900;2023-07-29T01:48:16;27.02;;;11.18;;
70675;SDS011;59069;52.242;20.900;2023-07-29T01:50:42;20.73;;;9.03;;
70675;SDS011;59069;52.242;20.900;2023-07-29T01:53:08;23.52;;;10.32;;
70675;SDS011;59069;52.242;20.900;2023-07-29T01:55:33;21.90;;;10.03;;
70675;SDS011;59069;52.242;20.900;2023-07-29T01:57:58;21.97;;;9.90;;
70675;SDS011;59069;52.242;20.900;2023-07-29T02:00:24;19.87;;;8.97;;
70675;SDS011;59069;52.242;20.900;2023-07-29T02:02:49;20.60;;;9.47;;
70675;SDS011;59069;52.242;20.900;2023-07-29T02:05:14;22.00;;;8.85;;
70675;SDS011;59069;52.242;20.900;2023-07-29T02:07:40;22.00;;;9.93;;
70675;SDS011;59069;52.242;20.900;2023-07-29T02:10:06;17.47;;;8.77;;
70675;SDS011;59069;52.242;20.900;2023-07-29T02:12:32;17.52;;;8.93;;
70675;SDS011;59069;52.242;20.900;2023-07-29T02:14:58;17.13;;;8.27;;
70675;SDS011;59069;52.242;20.900;2023-07-29T02:17:23;22.70;;;8.63;;
70675;SDS011;59069;52.242;20.900;2023-07-29T02:19:48;18.30;;;9.67;;
70675;SDS011;59069;52.242;20.900;2023-07-29T02:22:14;24.73;;;9.40;;
70675;SDS011;59069;52.242;20.900;2023-07-29T02:24:42;26.08;;;8.65;;
70675;SDS011;59069;52.242;20.900;2023-07-29T02:27:07;24.33;;;8.17;;
70675;SDS011;59069;52.242;20.900;2023-07-29T02:29:33;17.43;;;8.93;;
70675;SDS011;59069;52.242;20.900;2023-07-29T02:31:58;21.77;;;8.77;;
70675;SDS011;59069;52.242;20.900;2023-07-29T02:34:24;18.20;;;8.52;;
70675;SDS011;59069;52.242;20.900;2023-07-29T02:36:50;27.90;;;8.77;;
70675;SDS011;59069;52.242;20.900;2023-07-29T02:39:15;20.42;;;8.23;;
70675;SDS011;59069;52.242;20.900;2023-07-29T02:41:41;18.97;;;7.90;;
70675;SDS011;59069;52.242;20.900;2023-07-29T02:44:06;21.13;;;8.77;;
70675;SDS011;59069;52.242;20.900;2023-07-29T02:46:32;17.23;;;7.75;;
70675;SDS011;59069;52.242;20.900;2023-07-29T02:48:57;20.33;;;9.00;;
70675;SDS011;59069;52.242;20.900;2023-07-29T02:51:23;19.77;;;8.53;;
70675;SDS011;59069;52.242;20.900;2023-07-29T02:53:48;31.03;;;9.07;;
70675;SDS011;59069;52.242;20.900;2023-07-29T02:56:13;39.22;;;7.93;;
70675;SDS011;59069;52.242;20.900;2023-07-29T02:58:39;30.37;;;7.97;;
70675;SDS011;59069;52.242;20.900;2023-07-29T03:01:05;33.70;;;8.23;;
70675;SDS011;59069;52.242;20.900;2023-07-29T03:03:31;27.05;;;8.85;;
70675;SDS011;59069;52.242;20.900;2023-07-29T03:06:08;27.80;;;8.43;;
70675;SDS011;59069;52.242;20.900;2023-07-29T03:08:34;36.47;;;8.73;;
70675;SDS011;59069;52.242;20.900;2023-07-29T03:11:07;37.13;;;8.33;;
70675;SDS011;59069;52.242;20.900;2023-07-29T03:13:34;27.73;;;8.45;;
70675;SDS011;59069;52.242;20.900;2023-07-29T03:16:06;21.23;;;8.00;;
70675;SDS011;59069;52.242;20.900;2023-07-29T03:18:32;35.22;;;7.75;;
70675;SDS011;59069;52.242;20.900;2023-07-29T03:20:57;48.40;;;7.20;;
70675;SDS011;59069;52.242;20.900;2023-07-29T03:23:23;37.97;;;7.10;;
70675;SDS011;59069;52.242;20.900;2023-07-29T03:25:49;40.83;;;7.43;;
70675;SDS011;59069;52.242;20.900;2023-07-29T03:28:16;20.50;;;6.47;;
70675;SDS011;59069;52.242;20.900;2023-07-29T03:30:42;26.93;;;6.57;;
70675;SDS011;59069;52.242;20.900;2023-07-29T03:33:07;56.60;;;7.57;;
70675;SDS011;59069;52.242;20.900;2023-07-29T03:35:32;25.23;;;7.57;;
70675;SDS011;59069;52.242;20.900;2023-07-29T03:37:58;48.27;;;7.73;;
70675;SDS011;59069;52.242;20.900;2023-07-29T03:40:23;75.00;;;11.13;;
70675;SDS011;59069;52.242;20.900;2023-07-29T03:42:48;75.70;;;11.53;;
70675;SDS011;59069;52.242;20.900;2023-07-29T03:45:14;53.27;;;9.03;;
70675;SDS011;59069;52.242;20.900;2023-07-29T03:47:40;40.55;;;9.65;;
70675;SDS011;59069;52.242;20.900;2023-07-29T03:50:05;31.60;;;8.57;;
70675;SDS011;59069;52.242;20.900;2023-07-29T03:52:31;35.63;;;9.00;;
70675;SDS011;59069;52.242;20.900;2023-07-29T03:54:56;29.40;;;7.70;;
70675;SDS011;59069;52.242;20.900;2023-07-29T03:57:21;48.97;;;8.47;;
70675;SDS011;59069;52.242;20.900;2023-07-29T03:59:47;29.80;;;7.90;;
70675;SDS011;59069;52.242;20.900;2023-07-29T04:02:12;28.60;;;8.03;;
70675;SDS011;59069;52.242;20.900;2023-07-29T04:04:37;41.25;;;7.32;;
70675;SDS011;59069;52.242;20.900;2023-07-29T04:07:03;33.70;;;7.87;;
70675;SDS011;59069;52.242;20.900;2023-07-29T04:09:29;27.53;;;7.17;;
70675;SDS011;59069;52.242;20.900;2023-07-29T04:11:54;30.15;;;7.82;;
70675;SDS011;59069;52.242;20.900;2023-07-29T04:14:20;22.80;;;6.40;;
70675;SDS011;59069;52.242;20.900;2023-07-29T04:16:45;28.73;;;6.60;;
70675;SDS011;59069;52.242;20.900;2023-07-29T04:19:10;24.20;;;6.37;;
70675;SDS011;59069;52.242;20.900;2023-07-29T04:21:36;20.77;;;6.40;;
70675;SDS011;59069;52.242;20.900;2023-07-29T04:24:01;19.17;;;6.20;;
70675;SDS011;59069;52.242;20.900;2023-07-29T04:26:27;19.37;;;6.53;;
70675;SDS011;59069;52.242;20.900;2023-07-29T04:28:52;42.97;;;6.00;;
70675;SDS011;59069;52.242;20.900;2023-07-29T04:31:18;25.53;;;6.07;;
70675;SDS011;59069;52.242;20.900;2023-07-29T04:33:43;24.17;;;6.30;;
70675;SDS011;59069;52.242;20.900;2023-07-29T04:36:08;20.80;;;6.13;;
70675;SDS011;59069;52.242;20.900;2023-07-29T04:38:34;17.57;;;6.00;;
70675;SDS011;59069;52.242;20.900;2023-07-29T04:41:02;31.60;;;6.10;;
70675;SDS011;59069;52.242;20.900;2023-07-29T04:43:28;28.93;;;6.10;;
70675;SDS011;59069;52.242;20.900;2023-07-29T04:45:55;30.25;;;6.25;;
70675;SDS011;59069;52.242;20.900;2023-07-29T04:48:20;27.10;;;6.60;;
70675;SDS011;59069;52.242;20.900;2023-07-29T04:50:46;25.77;;;6.43;;
70675;SDS011;59069;52.242;20.900;2023-07-29T04:53:11;21.27;;;7.07;;
70675;SDS011;59069;52.242;20.900;2023-07-29T04:55:36;26.93;;;6.90;;
70675;SDS011;59069;52.242;20.900;2023-07-29T04:58:02;23.33;;;6.50;;
70675;SDS011;59069;52.242;20.900;2023-07-29T05:00:27;21.90;;;6.73;;
70675;SDS011;59069;52.242;20.900;2023-07-29T05:02:52;14.60;;;6.60;;
70675;SDS011;59069;52.242;20.900;2023-07-29T05:05:18;20.10;;;7.00;;
70675;SDS011;59069;52.242;20.900;2023-07-29T05:07:43;14.43;;;7.13;;
70675;SDS011;59069;52.242;20.900;2023-07-29T05:10:09;14.93;;;6.67;;
70675;SDS011;59069;52.242;20.900;2023-07-29T05:12:34;25.73;;;7.20;;
70675;SDS011;59069;52.242;20.900;2023-07-29T05:14:59;21.40;;;6.97;;
70675;SDS011;59069;52.242;20.900;2023-07-29T05:17:25;12.98;;;6.88;;
70675;SDS011;59069;52.242;20.900;2023-07-29T05:19:50;11.93;;;7.20;;
70675;SDS011;59069;52.242;20.900;2023-07-29T05:22:16;11.23;;;6.80;;
70675;SDS011;59069;52.242;20.900;2023-07-29T05:24:41;23.13;;;8.17;;
70675;SDS011;59069;52.242;20.900;2023-07-29T05:27:06;17.77;;;7.47;;
70675;SDS011;59069;52.242;20.900;2023-07-29T05:29:33;17.83;;;8.20;;
70675;SDS011;59069;52.242;20.900;2023-07-29T05:31:59;20.20;;;8.10;;
70675;SDS011;59069;52.242;20.900;2023-07-29T05:34:24;13.00;;;8.13;;
70675;SDS011;59069;52.242;20.900;2023-07-29T05:36:49;12.97;;;8.03;;
70675;SDS011;59069;52.242;20.900;2023-07-29T05:39:15;16.70;;;9.17;;
70675;SDS011;59069;52.242;20.900;2023-07-29T05:41:40;20.13;;;10.53;;
70675;SDS011;59069;52.242;20.900;2023-07-29T05:44:05;18.77;;;10.73;;
70675;SDS011;59069;52.242;20.900;2023-07-29T05:46:31;18.63;;;11.30;;
70675;SDS011;59069;52.242;20.900;2023-07-29T05:48:56;19.03;;;12.07;;
70675;SDS011;59069;52.242;20.900;2023-07-29T05:51:22;18.27;;;11.47;;
70675;SDS011;59069;52.242;20.900;2023-07-29T05:53:47;19.50;;;11.60;;
70675;SDS011;59069;52.242;20.900;2023-07-29T05:56:13;17.87;;;10.67;;
70675;SDS011;59069;52.242;20.900;2023-07-29T05:58:38;18.37;;;11.40;;
70675;SDS011;59069;52.242;20.900;2023-07-29T06:01:03;19.37;;;11.40;;
70675;SDS011;59069;52.242;20.900;2023-07-29T06:03:29;20.23;;;11.80;;
70675;SDS011;59069;52.242;20.900;2023-07-29T06:05:54;17.87;;;11.53;;
70675;SDS011;59069;52.242;20.900;2023-07-29T06:08:19;19.23;;;11.77;;
70675;SDS011;59069;52.242;20.900;2023-07-29T06:10:45;21.87;;;12.67;;
70675;SDS011;59069;52.242;20.900;2023-07-29T06:13:10;19.90;;;12.67;;
70675;SDS011;59069;52.242;20.900;2023-07-29T06:15:36;18.27;;;11.73;;
70675;SDS011;59069;52.242;20.900;2023-07-29T06:18:01;18.60;;;12.57;;
70675;SDS011;59069;52.242;20.900;2023-07-29T06:20:26;17.17;;;11.77;;
70675;SDS011;59069;52.242;20.900;2023-07-29T06:22:52;18.53;;;12.17;;
70675;SDS011;59069;52.242;20.900;2023-07-29T06:25:17;18.60;;;12.60;;
70675;SDS011;59069;52.242;20.900;2023-07-29T06:27:43;19.70;;;13.93;;
70675;SDS011;59069;52.242;20.900;2023-07-29T06:30:08;18.27;;;12.63;;
70675;SDS011;59069;52.242;20.900;2023-07-29T06:32:34;22.50;;;14.30;;
70675;SDS011;59069;52.242;20.900;2023-07-29T06:34:59;25.80;;;14.82;;
70675;SDS011;59069;52.242;20.900;2023-07-29T06:37:25;21.67;;;15.10;;
70675;SDS011;59069;52.242;20.900;2023-07-29T06:39:50;22.60;;;14.57;;
70675;SDS011;59069;52.242;20.900;2023-07-29T06:42:15;24.70;;;15.52;;
70675;SDS011;59069;52.242;20.900;2023-07-29T06:44:41;20.10;;;13.87;;
70675;SDS011;59069;52.242;20.900;2023-07-29T06:47:06;20.20;;;13.27;;
70675;SDS011;59069;52.242;20.900;2023-07-29T06:49:32;19.97;;;12.77;;
70675;SDS011;59069;52.242;20.900;2023-07-29T06:51:57;15.93;;;11.37;;
70675;SDS011;59069;52.242;20.900;2023-07-29T06:54:25;19.87;;;12.03;;
70675;SDS011;59069;52.242;20.900;2023-07-29T06:56:51;18.40;;;11.93;;
70675;SDS011;59069;52.242;20.900;2023-07-29T06:59:17;16.88;;;11.30;;
70675;SDS011;59069;52.242;20.900;2023-07-29T07:01:42;16.67;;;11.30;;
70675;SDS011;59069;52.242;20.900;2023-07-29T07:04:08;15.70;;;10.97;;
70675;SDS011;59069;52.242;20.900;2023-07-29T07:06:33;15.07;;;11.27;;
70675;SDS011;59069;52.242;20.900;2023-07-29T07:08:58;39.47;;;19.40;;
70675;SDS011;59069;52.242;20.900;2023-07-29T07:11:24;15.60;;;10.47;;
70675;SDS011;59069;52.242;20.900;2023-07-29T07:13:49;15.17;;;9.70;;
70675;SDS011;59069;52.242;20.900;2023-07-29T07:16:14;14.23;;;9.90;;
70675;SDS011;59069;52.242;20.900;2023-07-29T07:18:40;15.57;;;10.07;;
70675;SDS011;59069;52.242;20.900;2023-07-29T07:21:05;13.93;;;8.97;;
70675;SDS011;59069;52.242;20.900;2023-07-29T07:23:31;13.43;;;9.47;;
70675;SDS011;59069;52.242;20.900;2023-07-29T07:25:56;14.98;;;9.85;;
70675;SDS011;59069;52.242;20.900;2023-07-29T07:28:21;14.57;;;9.53;;
70675;SDS011;59069;52.242;20.900;2023-07-29T07:30:47;13.07;;;8.57;;
70675;SDS011;59069;52.242;20.900;2023-07-29T07:33:12;13.13;;;8.77;;
70675;SDS011;59069;52.242;20.900;2023-07-29T07:35:38;24.83;;;16.93;;
70675;SDS011;59069;52.242;20.900;2023-07-29T07:38:03;16.50;;;10.35;;
70675;SDS011;59069;52.242;20.900;2023-07-29T07:40:30;16.07;;;9.37;;
70675;SDS011;59069;52.242;20.900;2023-07-29T07:42:56;13.90;;;8.55;;
70675;SDS011;59069;52.242;20.900;2023-07-29T07:45:21;15.07;;;9.40;;
70675;SDS011;59069;52.242;20.900;2023-07-29T07:47:46;11.77;;;8.37;;
70675;SDS011;59069;52.242;20.900;2023-07-29T07:50:12;13.23;;;8.07;;
70675;SDS011;59069;52.242;20.900;2023-07-29T07:52:39;12.95;;;8.70;;
70675;SDS011;59069;52.242;20.900;2023-07-29T07:55:04;15.88;;;10.05;;
70675;SDS011;59069;52.242;20.900;2023-07-29T07:57:30;14.30;;;9.40;;
70675;SDS011;59069;52.242;20.900;2023-07-29T07:59:55;15.38;;;8.98;;
70675;SDS011;59069;52.242;20.900;2023-07-29T08:02:21;15.67;;;8.50;;
70675;SDS011;59069;52.242;20.900;2023-07-29T08:04:46;13.93;;;8.93;;
70675;SDS011;59069;52.242;20.900;2023-07-29T08:07:12;16.13;;;9.10;;
70675;SDS011;59069;52.242;20.900;2023-07-29T08:09:38;14.07;;;8.70;;
70675;SDS011;59069;52.242;20.900;2023-07-29T08:12:03;12.53;;;7.63;;
70675;SDS011;59069;52.242;20.900;2023-07-29T08:14:32;12.93;;;7.95;;
70675;SDS011;59069;52.242;20.900;2023-07-29T08:16:58;11.93;;;7.38;;
70675;SDS011;59069;52.242;20.900;2023-07-29T08:19:23;11.93;;;7.53;;
70675;SDS011;59069;52.242;20.900;2023-07-29T08:21:49;11.87;;;7.00;;
70675;SDS011;59069;52.242;20.900;2023-07-29T08:24:14;11.63;;;6.87;;
70675;SDS011;59069;52.242;20.900;2023-07-29T08:26:39;10.30;;;6.00;;
70675;SDS011;59069;52.242;20.900;2023-07-29T08:29:05;10.00;;;6.13;;
70675;SDS011;59069;52.242;20.900;2023-07-29T08:31:33;10.05;;;5.60;;
70675;SDS011;59069;52.242;20.900;2023-07-29T08:33:59;9.07;;;5.30;;
70675;SDS011;59069;52.242;20.900;2023-07-29T08:36:25;8.75;;;4.97;;
70675;SDS011;59069;52.242;20.900;2023-07-29T08:38:50;8.20;;;5.00;;
70675;SDS011;59069;52.242;20.900;2023-07-29T08:41:19;10.27;;;4.90;;
70675;SDS011;59069;52.242;20.900;2023-07-29T08:43:58;8.67;;;4.70;;
70675;SDS011;59069;52.242;20.900;2023-07-29T08:46:28;7.18;;;4.10;;
70675;SDS011;59069;52.242;20.900;2023-07-29T08:48:53;9.65;;;5.10;;
70675;SDS011;59069;52.242;20.900;2023-07-29T08:51:20;10.02;;;5.30;;
70675;SDS011;59069;52.242;20.900;2023-07-29T08:53:48;7.38;;;4.18;;
70675;SDS011;59069;52.242;20.900;2023-07-29T08:56:14;8.73;;;5.05;;
70675;SDS011;59069;52.242;20.900;2023-07-29T08:58:40;7.23;;;3.93;;
70675;SDS011;59069;52.242;20.900;2023-07-29T09:01:06;6.90;;;3.30;;
70675;SDS011;59069;52.242;20.900;2023-07-29T09:03:32;7.63;;;3.50;;
70675;SDS011;59069;52.242;20.900;2023-07-29T09:05:58;8.50;;;3.65;;
70675;SDS011;59069;52.242;20.900;2023-07-29T09:08:27;6.35;;;2.90;;
70675;SDS011;59069;52.242;20.900;2023-07-29T09:10:53;6.35;;;3.00;;
70675;SDS011;59069;52.242;20.900;2023-07-29T09:13:20;7.87;;;3.30;;
70675;SDS011;59069;52.242;20.900;2023-07-29T09:15:45;7.25;;;3.90;;
70675;SDS011;59069;52.242;20.900;2023-07-29T09:18:20;7.87;;;3.73;;
70675;SDS011;59069;52.242;20.900;2023-07-29T09:20:46;6.35;;;3.25;;
70675;SDS011;59069;52.242;20.900;2023-07-29T09:23:13;5.93;;;2.90;;
70675;SDS011;59069;52.242;20.900;2023-07-29T09:25:38;5.88;;;2.70;;
70675;SDS011;59069;52.242;20.900;2023-07-29T09:28:07;6.30;;;2.80;;
70675;SDS011;59069;52.242;20.900;2023-07-29T09:30:34;6.75;;;3.08;;
70675;SDS011;59069;52.242;20.900;2023-07-29T09:33:00;6.30;;;2.73;;
70675;SDS011;59069;52.242;20.900;2023-07-29T09:35:26;7.10;;;2.92;;
70675;SDS011;59069;52.242;20.900;2023-07-29T09:37:53;6.57;;;3.40;;
70675;SDS011;59069;52.242;20.900;2023-07-29T09:40:19;6.50;;;3.10;;
70675;SDS011;59069;52.242;20.900;2023-07-29T09:42:51;6.40;;;3.00;;
70675;SDS011;59069;52.242;20.900;2023-07-29T09:45:21;5.60;;;2.92;;
70675;SDS011;59069;52.242;20.900;2023-07-29T09:47:50;6.00;;;2.60;;
70675;SDS011;59069;52.242;20.900;2023-07-29T09:50:16;6.63;;;2.75;;
70675;SDS011;59069;52.242;20.900;2023-07-29T09:52:41;8.13;;;3.03;;
70675;SDS011;59069;52.242;20.900;2023-07-29T09:55:09;9.27;;;4.20;;
70675;SDS011;59069;52.242;20.900;2023-07-29T09:57:36;13.85;;;5.85;;
70675;SDS011;59069;52.242;20.900;2023-07-29T10:00:04;7.73;;;4.00;;
70675;SDS011;59069;52.242;20.900;2023-07-29T10:02:36;6.00;;;2.83;;
70675;SDS011;59069;52.242;20.900;2023-07-29T10:05:02;6.05;;;2.58;;
70675;SDS011;59069;52.242;20.900;2023-07-29T10:07:29;6.18;;;2.55;;
70675;SDS011;59069;52.242;20.900;2023-07-29T10:09:55;5.70;;;2.70;;
70675;SDS011;59069;52.242;20.900;2023-07-29T10:12:21;6.83;;;2.53;;
70675;SDS011;59069;52.242;20.900;2023-07-29T10:14:47;6.07;;;2.40;;
70675;SDS011;59069;52.242;20.900;2023-07-29T10:17:14;5.75;;;2.40;;
70675;SDS011;59069;52.242;20.900;2023-07-29T10:19:40;6.63;;;2.40;;
70675;SDS011;59069;52.242;20.900;2023-07-29T10:22:08;6.55;;;2.70;;
70675;SDS011;59069;52.242;20.900;2023-07-29T10:24:35;5.67;;;2.47;;
70675;SDS011;59069;52.242;20.900;2023-07-29T10:27:04;5.35;;;2.45;;
70675;SDS011;59069;52.242;20.900;2023-07-29T10:29:31;6.13;;;2.53;;
70675;SDS011;59069;52.242;20.900;2023-07-29T10:32:01;5.85;;;2.50;;
70675;SDS011;59069;52.242;20.900;2023-07-29T10:34:29;5.60;;;2.40;;
70675;SDS011;59069;52.242;20.900;2023-07-29T10:36:56;8.60;;;2.30;;
70675;SDS011;59069;52.242;20.900;2023-07-29T10:39:24;5.40;;;2.65;;
70675;SDS011;59069;52.242;20.900;2023-07-29T10:41:59;6.00;;;2.90;;
70675;SDS011;59069;52.242;20.900;2023-07-29T10:45:16;5.40;;;2.53;;
70675;SDS011;59069;52.242;20.900;2023-07-29T10:49:46;5.90;;;2.30;;
70675;SDS011;59069;52.242;20.900;2023-07-29T10:52:14;5.07;;;2.45;;
70675;SDS011;59069;52.242;20.900;2023-07-29T10:54:42;5.72;;;2.40;;
70675;SDS011;59069;52.242;20.900;2023-07-29T10:57:07;5.15;;;2.17;;
70675;SDS011;59069;52.242;20.900;2023-07-29T10:59:37;6.40;;;2.38;;
70675;SDS011;59069;52.242;20.900;2023-07-29T11:02:03;5.63;;;2.60;;
70675;SDS011;59069;52.242;20.900;2023-07-29T11:05:17;5.22;;;2.50;;
70675;SDS011;59069;52.242;20.900;2023-07-29T11:07:45;5.20;;;2.10;;
70675;SDS011;59069;52.242;20.900;2023-07-29T11:10:12;5.00;;;2.10;;
70675;SDS011;59069;52.242;20.900;2023-07-29T11:12:49;5.18;;;2.17;;
70675;SDS011;59069;52.242;20.900;2023-07-29T11:15:27;5.63;;;2.40;;
70675;SDS011;59069;52.242;20.900;2023-07-29T11:17:55;5.35;;;2.38;;
70675;SDS011;59069;52.242;20.900;2023-07-29T11:20:22;4.95;;;2.38;;
70675;SDS011;59069;52.242;20.900;2023-07-29T11:22:49;7.03;;;3.87;;
70675;SDS011;59069;52.242;20.900;2023-07-29T11:25:15;6.18;;;2.40;;
70675;SDS011;59069;52.242;20.900;2023-07-29T11:27:42;5.72;;;2.67;;
70675;SDS011;59069;52.242;20.900;2023-07-29T11:30:09;5.97;;;2.70;;
70675;SDS011;59069;52.242;20.900;2023-07-29T11:32:36;5.65;;;2.40;;
70675;SDS011;59069;52.242;20.900;2023-07-29T11:35:06;5.40;;;2.33;;
70675;SDS011;59069;52.242;20.900;2023-07-29T11:37:36;5.30;;;2.30;;
70675;SDS011;59069;52.242;20.900;2023-07-29T11:40:03;6.13;;;2.55;;
70675;SDS011;59069;52.242;20.900;2023-07-29T11:42:33;6.10;;;2.70;;
70675;SDS011;59069;52.242;20.900;2023-07-29T11:45:00;6.07;;;2.63;;
70675;SDS011;59069;52.242;20.900;2023-07-29T11:47:30;5.55;;;2.63;;
70675;SDS011;59069;52.242;20.900;2023-07-29T11:49:59;5.25;;;2.40;;
70675;SDS011;59069;52.242;20.900;2023-07-29T11:52:28;5.32;;;2.40;;
70675;SDS011;59069;52.242;20.900;2023-07-29T11:54:54;5.43;;;2.23;;
70675;SDS011;59069;52.242;20.900;2023-07-29T11:57:19;5.50;;;2.55;;
70675;SDS011;59069;52.242;20.900;2023-07-29T11:59:45;7.27;;;2.80;;
70675;SDS011;59069;52.242;20.900;2023-07-29T12:02:15;5.50;;;2.63;;
70675;SDS011;59069;52.242;20.900;2023-07-29T12:04:41;5.30;;;2.58;;
70675;SDS011;59069;52.242;20.900;2023-07-29T12:07:09;7.30;;;3.73;;
70675;SDS011;59069;52.242;20.900;2023-07-29T12:09:35;15.27;;;12.10;;
70675;SDS011;59069;52.242;20.900;2023-07-29T12:12:04;6.95;;;3.38;;
70675;SDS011;59069;52.242;20.900;2023-07-29T12:14:31;5.50;;;2.90;;
70675;SDS011;59069;52.242;20.900;2023-07-29T12:16:59;5.20;;;2.57;;
70675;SDS011;59069;52.242;20.900;2023-07-29T12:19:30;4.90;;;2.03;;
70675;SDS011;59069;52.242;20.900;2023-07-29T12:21:56;6.07;;;3.00;;
70675;SDS011;59069;52.242;20.900;2023-07-29T12:24:22;5.30;;;2.50;;
70675;SDS011;59069;52.242;20.900;2023-07-29T12:26:47;6.03;;;2.73;;
70675;SDS011;59069;52.242;20.900;2023-07-29T12:31:39;5.15;;;2.50;;
70675;SDS011;59069;52.242;20.900;2023-07-29T12:34:04;5.03;;;2.47;;
70675;SDS011;59069;52.242;20.900;2023-07-29T12:39:15;5.50;;;2.67;;
70675;SDS011;59069;52.242;20.900;2023-07-29T12:41:42;6.75;;;2.63;;
70675;SDS011;59069;52.242;20.900;2023-07-29T12:44:07;9.27;;;3.00;;
70675;SDS011;59069;52.242;20.900;2023-07-29T12:46:33;5.83;;;2.70;;
70675;SDS011;59069;52.242;20.900;2023-07-29T12:48:58;5.07;;;2.37;;
70675;SDS011;59069;52.242;20.900;2023-07-29T12:51:23;5.72;;;2.72;;
70675;SDS011;59069;52.242;20.900;2023-07-29T12:53:49;6.47;;;3.20;;
70675;SDS011;59069;52.242;20.900;2023-07-29T12:56:14;5.47;;;2.43;;
70675;SDS011;59069;52.242;20.900;2023-07-29T12:58:40;7.25;;;2.55;;
70675;SDS011;59069;52.242;20.900;2023-07-29T13:01:05;4.60;;;2.03;;
70675;SDS011;59069;52.242;20.900;2023-07-29T13:03:31;5.47;;;2.63;;
70675;SDS011;59069;52.242;20.900;2023-07-29T13:05:56;5.47;;;2.50;;
70675;SDS011;59069;52.242;20.900;2023-07-29T13:08:21;6.23;;;2.70;;
70675;SDS011;59069;52.242;20.900;2023-07-29T13:10:48;5.70;;;2.70;;
70675;SDS011;59069;52.242;20.900;2023-07-29T13:13:13;5.07;;;2.80;;
70675;SDS011;59069;52.242;20.900;2023-07-29T13:15:38;7.00;;;2.60;;
70675;SDS011;59069;52.242;20.900;2023-07-29T13:18:04;4.93;;;2.30;;
70675;SDS011;59069;52.242;20.900;2023-07-29T13:20:29;4.93;;;2.47;;
70675;SDS011;59069;52.242;20.900;2023-07-29T13:22:55;5.00;;;2.23;;
70675;SDS011;59069;52.242;20.900;2023-07-29T13:25:20;7.20;;;2.67;;
70675;SDS011;59069;52.242;20.900;2023-07-29T13:27:45;7.30;;;3.03;;
70675;SDS011;59069;52.242;20.900;2023-07-29T13:30:11;6.47;;;3.00;;
70675;SDS011;59069;52.242;20.900;2023-07-29T13:32:36;5.30;;;2.30;;
70675;SDS011;59069;52.242;20.900;2023-07-29T13:35:02;5.20;;;2.60;;
70675;SDS011;59069;52.242;20.900;2023-07-29T13:37:27;8.83;;;2.60;;
70675;SDS011;59069;52.242;20.900;2023-07-29T13:39:52;5.65;;;2.70;;
70675;SDS011;59069;52.242;20.900;2023-07-29T13:42:18;5.20;;;2.23;;
70675;SDS011;59069;52.242;20.900;2023-07-29T13:44:43;5.50;;;2.20;;
70675;SDS011;59069;52.242;20.900;2023-07-29T13:47:08;5.40;;;2.50;;
70675;SDS011;59069;52.242;20.900;2023-07-29T13:49:34;4.93;;;2.50;;
70675;SDS011;59069;52.242;20.900;2023-07-29T13:51:59;5.10;;;2.57;;
70675;SDS011;59069;52.242;20.900;2023-07-29T13:54:25;6.47;;;2.90;;
70675;SDS011;59069;52.242;20.900;2023-07-29T13:56:50;5.55;;;2.38;;
70675;SDS011;59069;52.242;20.900;2023-07-29T13:59:15;9.97;;;2.67;;
70675;SDS011;59069;52.242;20.900;2023-07-29T14:01:41;6.83;;;2.80;;
70675;SDS011;59069;52.242;20.900;2023-07-29T14:04:06;5.30;;;2.60;;
70675;SDS011;59069;52.242;20.900;2023-07-29T14:06:32;5.43;;;2.27;;
70675;SDS011;59069;52.242;20.900;2023-07-29T14:08:57;6.25;;;2.85;;
70675;SDS011;59069;52.242;20.900;2023-07-29T14:11:22;5.13;;;2.37;;
70675;SDS011;59069;52.242;20.900;2023-07-29T14:13:48;6.03;;;2.60;;
70675;SDS011;59069;52.242;20.900;2023-07-29T14:16:13;6.73;;;2.50;;
70675;SDS011;59069;52.242;20.900;2023-07-29T14:18:38;4.93;;;2.20;;
70675;SDS011;59069;52.242;20.900;2023-07-29T14:21:04;5.53;;;2.40;;
70675;SDS011;59069;52.242;20.900;2023-07-29T14:23:29;6.93;;;4.47;;
70675;SDS011;59069;52.242;20.900;2023-07-29T14:25:55;6.87;;;3.40;;
70675;SDS011;59069;52.242;20.900;2023-07-29T14:28:20;4.87;;;2.23;;
70675;SDS011;59069;52.242;20.900;2023-07-29T14:30:46;6.57;;;3.03;;
70675;SDS011;59069;52.242;20.900;2023-07-29T14:33:11;5.40;;;2.60;;